Aquone, North Carolina
Current Conditions -  °F | °C
As of 7:15 AM on Monday 26 Jan 2015 (Local Time) from KRHP Reporting Station
Light Rain Light Rain  
Wind Chill: 33°   Ceiling: 2500
Heat Index: 39°   Visibility: 7mi
Dew Point: 35°   Wind: 9mph
Humidity: 86%   Direction: 250°WSW
Pressure: 29.71"   Gusts: NA
Location:  35.2235°N, 83.6438°W
Report Text: KRHP 261215Z AUTO 25008KT 7SM -RA OVC025 04/02 A2971 RMK AO2 T00400019
Loading
Personal Weather Stations






























Interactive Weather Map New forecast layout! Learn more

10-Day Weather Forecast

Advertisements
Track Severe Weather on mobile